College Park, MD

2:11 PM EST on December 14, 2019 (GMT -0500)
College Park

Weather History for KCGS - November, 2019

Change the Weather History Date:

Friday, November 15, 2019

  Actual Average Record
Temperature  
Mean Temperature 40 °F -  
Max Temperature 52 °F 58 °F 79 °F (1985)
Min Temperature 27 °F 38 °F 20 °F (1986)
Degree Days  
Heating Degree Days 26    
Moisture  
Dew Point 23 °F    
Average Humidity 60    
Maximum Humidity 83    
Minimum Humidity 27    
Precipitation  
Precipitation 0.00 in - - ()
Sea Level Pressure  
Sea Level Pressure 30.24 in    
Wind  
Wind Speed 1 mph (NW)    
Max Wind Speed 12 mph    
Max Gust Speed 17 mph    
Visibility 10 miles    
Events      
Averages and records for this station are not official NWS values.
T = Trace of Precipitation, MM = Missing Value Source: NWS Daily Summary

Daily Weather History Graph

Daily Weather History Graph

Search for Another Location

Airport or City:

Astronomy

Nov. 15, 2019 Rise Set
Actual Time 6:50 AM EST 4:53 PM EST
Civil Twilight 6:21 AM EST 5:22 PM EST
Nautical Twilight 5:49 AM EST 5:54 PM EST
Astronomical Twilight 5:17 AM EST 6:26 PM EST
Moon 7:28 PM EST (11/15) 9:43 AM EST (11/15)
Length of Visible Light 11h 00m
Length of Day
10h 03m
Waning Gibbous, 90% of the Moon is Illuminated
Nov 15
Waning Gibbous
Nov 19
Last Quarter
Nov 26
New
Dec 4
First Quarter
Dec 12
Full

Hourly Weather History & Observations

Time (EST) Temp. Dew Point Humidity Pressure Visibility Wind Dir Wind Speed Gust Speed Precip Events Conditions
12:15 AM 29.3 °F 22.6 °F 76% 30.30 in 10.0 mi Calm Calm - N/A   Clear
12:35 AM 29.1 °F 23.4 °F 79% 30.30 in 10.0 mi Calm Calm - N/A   Clear
12:55 AM 29.1 °F 23.2 °F 78% 30.30 in 10.0 mi Calm Calm - N/A   Scattered Clouds
1:15 AM 28.9 °F 23.4 °F 80% 30.29 in 10.0 mi Calm Calm - N/A   Scattered Clouds
1:35 AM 28.4 °F 22.8 °F 80% 30.29 in 10.0 mi Calm Calm - N/A   Scattered Clouds
1:55 AM 28.4 °F 22.8 °F 80% 30.28 in 10.0 mi Calm Calm - N/A   Clear
2:15 AM 28.2 °F 22.3 °F 78% 30.28 in 10.0 mi Calm Calm - N/A   Clear
2:35 AM 28.6 °F 23.0 °F 80% 30.28 in 10.0 mi Calm Calm - N/A   Clear
3:15 AM 28.6 °F 22.8 °F 79% 30.27 in 10.0 mi Calm Calm - N/A   Clear
3:35 AM 28.2 °F 23.0 °F 81% 30.27 in 10.0 mi Calm Calm - N/A   Clear
3:55 AM 27.7 °F 22.6 °F 81% 30.26 in 10.0 mi Calm Calm - N/A   Clear
4:15 AM 27.5 °F 22.6 °F 82% 30.27 in 10.0 mi Calm Calm - N/A   Clear
4:35 AM 27.5 °F 23.0 °F 83% 30.27 in 10.0 mi Calm Calm - N/A   Clear
4:55 AM 27.5 °F 22.8 °F 83% 30.27 in 10.0 mi Calm Calm - N/A   Clear
5:15 AM 27.3 °F 22.6 °F 83% 30.27 in 10.0 mi Calm Calm - N/A   Clear
5:35 AM 27.5 °F 23.0 °F 83% 30.27 in 10.0 mi Calm Calm - N/A   Clear
5:55 AM 27.7 °F 22.8 °F 82% 30.27 in 10.0 mi Calm Calm - N/A   Clear
6:15 AM 27.9 °F 22.6 °F 81% 30.28 in 10.0 mi Calm Calm - N/A   Clear
6:35 AM 28.0 °F 23.0 °F 81% 30.29 in 10.0 mi Calm Calm - N/A   Clear
6:55 AM 27.9 °F 23.0 °F 82% 30.29 in 10.0 mi Calm Calm - N/A   Clear
7:15 AM 28.0 °F 23.0 °F 81% 30.30 in 10.0 mi Calm Calm - N/A   Clear
7:35 AM 28.2 °F 23.4 °F 82% 30.30 in 10.0 mi Calm Calm - N/A   Clear
7:55 AM 28.8 °F 23.7 °F 81% 30.29 in 10.0 mi Calm Calm - N/A   Clear
8:15 AM 30.0 °F 25.3 °F 83% 30.29 in 10.0 mi Calm Calm - N/A   Clear
8:35 AM 32.0 °F 26.2 °F 79% 30.29 in 10.0 mi Calm Calm - N/A   Clear
8:55 AM 34.5 °F 26.4 °F 72% 30.30 in 10.0 mi Calm Calm - N/A   Clear
9:15 AM 37.4 °F 26.1 °F 64% 30.30 in 10.0 mi Calm Calm - N/A   Clear
9:35 AM 39.2 °F 25.0 °F 57% 30.30 in 10.0 mi Calm Calm - N/A   Clear
9:55 AM 42.3 °F 23.4 °F 47% 30.29 in 10.0 mi Calm Calm - N/A   Clear
10:15 AM 44.8 °F 22.6 °F 42% 30.29 in 10.0 mi Calm Calm - N/A   Clear
10:35 AM 48.4 °F 19.4 °F 32% 30.28 in 10.0 mi NW 9.2 mph 17.3 mph N/A   Clear
10:55 AM 49.8 °F 18.9 °F 29% 30.27 in 10.0 mi North 9.2 mph - N/A   Clear
11:15 AM 50.4 °F 19.0 °F 29% 30.26 in 10.0 mi WNW 11.5 mph 17.3 mph N/A   Clear
11:35 AM 50.0 °F 18.1 °F 28% 30.25 in 10.0 mi NNW 10.4 mph - N/A   Clear
11:55 AM 50.4 °F 18.1 °F 28% 30.24 in 10.0 mi NNW 8.1 mph - N/A   Clear
12:15 PM 51.3 °F 18.7 °F 28% 30.22 in 10.0 mi North 8.1 mph - N/A   Clear
12:35 PM 51.8 °F 19.4 °F 28% 30.21 in 10.0 mi NNW 6.9 mph - N/A   Clear
12:55 PM 51.6 °F 18.7 °F 27% 30.21 in 10.0 mi NW 4.6 mph - N/A   Clear
1:15 PM 51.8 °F 18.7 °F 27% 30.20 in 10.0 mi Calm Calm - N/A   Clear
1:35 PM 51.8 °F 18.5 °F 27% 30.20 in 10.0 mi North 6.9 mph - N/A   Clear
1:55 PM 52.0 °F 18.7 °F 27% 30.19 in 10.0 mi Calm Calm - N/A   Clear
2:15 PM 51.6 °F 18.3 °F 27% 30.19 in 10.0 mi Calm Calm - N/A   Clear
2:35 PM 51.8 °F 19.2 °F 28% 30.19 in 10.0 mi West 3.5 mph - N/A   Clear
2:55 PM 51.8 °F 19.4 °F 28% 30.19 in 10.0 mi WNW 3.5 mph - N/A   Clear
3:15 PM 51.8 °F 19.4 °F 28% 30.18 in 10.0 mi Calm Calm - N/A   Clear
3:35 PM 51.4 °F 19.4 °F 28% 30.18 in 10.0 mi NW 3.5 mph - N/A   Clear
3:55 PM 51.3 °F 19.8 °F 29% 30.18 in 10.0 mi NNW 3.5 mph - N/A   Clear
4:15 PM 50.7 °F 19.9 °F 30% 30.19 in 10.0 mi Calm Calm - N/A   Clear
4:35 PM 49.5 °F 19.8 °F 31% 30.19 in 10.0 mi NNW 3.5 mph - N/A   Clear
4:55 PM 48.4 °F 19.8 °F 32% 30.19 in 10.0 mi Calm Calm - N/A   Clear
5:15 PM 45.7 °F 23.2 °F 41% 30.19 in 10.0 mi Calm Calm - N/A   Clear
5:35 PM 43.7 °F 24.8 °F 47% 30.19 in 10.0 mi Calm Calm - N/A   Clear
5:55 PM 42.6 °F 23.7 °F 47% 30.19 in 10.0 mi Calm Calm - N/A   Clear
6:15 PM 41.0 °F 25.0 °F 53% 30.20 in 10.0 mi Calm Calm - N/A   Clear
6:35 PM 40.1 °F 26.2 °F 58% 30.20 in 10.0 mi Calm Calm - N/A   Clear
6:55 PM 38.5 °F 26.8 °F 63% 30.20 in 10.0 mi Calm Calm - N/A   Clear
7:15 PM 38.1 °F 27.9 °F 67% 30.20 in 10.0 mi Calm Calm - N/A   Clear
7:35 PM 38.3 °F 25.3 °F 60% 30.21 in 10.0 mi Calm Calm - N/A   Clear
7:55 PM 37.6 °F 27.5 °F 67% 30.21 in 10.0 mi Calm Calm - N/A   Clear
8:15 PM 37.2 °F 27.7 °F 68% 30.20 in 10.0 mi Calm Calm - N/A   Clear
8:35 PM 36.9 °F 28.0 °F 70% 30.21 in 10.0 mi Calm Calm - N/A   Clear
9:15 PM 35.6 °F 27.1 °F 71% 30.22 in 10.0 mi Calm Calm - N/A   Clear
9:35 PM 34.7 °F 26.6 °F 72% 30.22 in 10.0 mi Calm Calm - N/A   Clear
9:55 PM 33.4 °F 25.7 °F 73% 30.22 in 10.0 mi Calm Calm - N/A   Clear
10:15 PM 33.1 °F 27.1 °F 79% 30.22 in 10.0 mi Calm Calm - N/A   Clear
10:35 PM 32.4 °F 25.9 °F 77% 30.23 in 10.0 mi Calm Calm - N/A   Clear
11:15 PM 32.4 °F 26.1 °F 78% 30.23 in 10.0 mi Calm Calm - N/A   Clear
11:35 PM 32.9 °F 26.1 °F 76% 30.23 in 10.0 mi Calm Calm - N/A   Clear
11:55 PM 33.8 °F 26.8 °F 75% 30.23 in 10.0 mi Calm Calm - N/A   Clear